Coyote, California
Current Conditions -  °F | °C
As of 10:50 AM on Sunday 23 Nov 2014 (Local Time) from KRHV Reporting Station
Clear Clear  
Wind Chill: 63°   Ceiling: Unl
Heat Index: 63°   Visibility: 10mi
Dew Point: 46°   Wind: 7mph
Humidity: 55%   Direction: 290°WNW
Pressure: 30.34"   Gusts: NA
Location:  37.22°N, 121.74°W
Report Text: KRHV 231850Z 29006KT 10SM SKC 17/08 A3034
Loading
Personal Weather Stations






























Interactive Weather Map New forecast layout! Learn more

10-Day Weather Forecast

Advertisements
Track Severe Weather on mobile